Terminal Aerodrome Forecast
Issued by NWS Northern Indiana

Home | Current Version | Previous Version | Graphics & Text | Print | Product List | Glossary On
Versions: 1 2 3 4 5 6 7 8 9 10 11 12 13
368
FTUS43 KIWX 230520
TAFFWA
TAF
KFWA 230520Z 2306/2406 00000KT P6SM SKC
     FM231000 00000KT 4SM BR SKC
     FM231300 VRB03KT P6SM FEW050 FEW250=

USA.gov is the U.S. government's official web portal to all federal, state and local government web resources and services.